createdAt,value
2018-05-07T00:00:14.455Z,50.70
2018-05-07T00:02:40.802Z,50.75
2018-05-07T00:05:07.167Z,50.76
2018-05-07T00:07:33.507Z,50.88
2018-05-07T00:09:59.871Z,50.69
2018-05-07T00:12:26.188Z,50.82
2018-05-07T00:14:52.549Z,51.03
2018-05-07T00:17:18.887Z,50.92
2018-05-07T00:19:45.335Z,50.82
2018-05-07T00:22:11.714Z,50.72
2018-05-07T00:24:38.078Z,50.79
2018-05-07T00:27:04.417Z,50.63
2018-05-07T00:29:30.810Z,50.94
2018-05-07T00:31:57.145Z,50.72
2018-05-07T00:34:23.524Z,50.77
2018-05-07T00:36:49.850Z,50.81
2018-05-07T00:39:16.202Z,50.83
2018-05-07T00:41:42.520Z,50.69
2018-05-07T00:44:08.886Z,50.88
2018-05-07T00:46:35.273Z,50.79
2018-05-07T00:49:01.609Z,50.88
2018-05-07T00:51:27.980Z,51.11
2018-05-07T00:53:54.384Z,51.10
2018-05-07T00:56:20.740Z,51.17
2018-05-07T00:58:47.342Z,51.08
2018-05-07T01:01:13.709Z,50.95
2018-05-07T01:03:40.066Z,51.50
2018-05-07T01:06:06.403Z,51.66
2018-05-07T01:08:32.813Z,52.01
2018-05-07T01:10:59.142Z,52.17
2018-05-07T01:13:25.457Z,52.30
2018-05-07T01:15:51.778Z,52.30
2018-05-07T01:18:18.103Z,52.62
2018-05-07T01:20:44.424Z,52.79
2018-05-07T01:23:10.814Z,52.72
2018-05-07T01:25:37.137Z,53.04
2018-05-07T01:28:03.470Z,53.00
2018-05-07T01:30:29.814Z,52.83
2018-05-07T01:32:56.202Z,53.12
2018-05-07T01:35:22.543Z,53.01
2018-05-07T01:37:48.855Z,53.10
2018-05-07T01:40:15.220Z,53.01
2018-05-07T01:42:41.598Z,53.17
2018-05-07T01:45:07.910Z,52.92
2018-05-07T01:47:34.230Z,53.04
2018-05-07T01:50:00.648Z,53.06
2018-05-07T01:52:26.966Z,53.00
2018-05-07T01:54:53.284Z,53.11
2018-05-07T01:57:19.667Z,53.04
2018-05-07T01:59:46.002Z,53.01
2018-05-07T02:02:12.313Z,53.01
2018-05-07T02:04:38.649Z,52.74
2018-05-07T02:07:05.009Z,52.75
2018-05-07T02:09:31.323Z,52.65
2018-05-07T02:11:57.681Z,52.77
2018-05-07T02:14:24.000Z,52.75
2018-05-07T02:16:50.333Z,52.81
2018-05-07T02:19:16.792Z,52.79
2018-05-07T02:21:43.190Z,52.79
2018-05-07T02:24:09.539Z,52.62
2018-05-07T02:26:35.901Z,52.73
2018-05-07T02:29:02.216Z,52.66
2018-05-07T02:31:28.817Z,52.72
2018-05-07T02:33:55.028Z,52.75
2018-05-07T02:36:21.544Z,52.77
2018-05-07T02:38:47.927Z,52.73
2018-05-07T02:41:14.266Z,52.66
2018-05-07T02:43:40.737Z,52.70
2018-05-07T02:46:07.067Z,52.64
2018-05-07T02:48:33.404Z,52.69
2018-05-07T02:50:59.791Z,52.76
2018-05-07T02:53:26.165Z,52.67
2018-05-07T02:55:52.537Z,52.78
2018-05-07T02:58:18.913Z,52.72
2018-05-07T03:00:45.283Z,52.81
2018-05-07T03:03:11.648Z,52.71
2018-05-07T03:05:38.001Z,52.75
2018-05-07T03:08:04.387Z,52.69
2018-05-07T03:10:30.753Z,52.86
2018-05-07T03:12:57.113Z,52.76
2018-05-07T03:15:23.485Z,52.81
2018-05-07T03:17:49.883Z,52.76
2018-05-07T03:20:16.280Z,52.83
2018-05-07T03:22:42.637Z,52.80
2018-05-07T03:25:08.968Z,52.82
2018-05-07T03:30:07.843Z,52.90
2018-05-07T03:32:34.201Z,52.86
2018-05-07T03:35:00.541Z,52.86
2018-05-07T03:37:26.885Z,52.90
2018-05-07T03:39:53.270Z,52.87
2018-05-07T03:42:19.648Z,52.95
2018-05-07T03:44:46.060Z,52.88
2018-05-07T03:47:12.438Z,52.97
2018-05-07T03:49:38.768Z,53.00
2018-05-07T03:52:05.106Z,53.01
2018-05-07T03:54:31.468Z,53.03
2018-05-07T03:56:57.827Z,53.12
2018-05-07T03:59:24.277Z,53.15
2018-05-07T04:01:50.649Z,53.07
2018-05-07T04:04:17.019Z,53.17
2018-05-07T04:06:43.344Z,53.14
2018-05-07T04:09:09.705Z,53.16
2018-05-07T04:11:36.069Z,53.19
2018-05-07T04:14:02.432Z,53.23
2018-05-07T04:16:28.748Z,53.21
2018-05-07T04:18:55.097Z,53.28
2018-05-07T04:21:21.440Z,53.25
2018-05-07T04:23:47.810Z,53.36
2018-05-07T04:26:14.218Z,53.32
2018-05-07T04:28:40.588Z,53.39
2018-05-07T04:31:06.968Z,53.43
2018-05-07T04:33:33.360Z,53.46
2018-05-07T04:35:59.703Z,53.40
2018-05-07T04:38:26.086Z,53.47
2018-05-07T04:40:52.416Z,53.54
2018-05-07T04:43:18.816Z,53.51
2018-05-07T04:45:45.239Z,53.56
2018-05-07T04:48:11.616Z,53.56
2018-05-07T04:50:37.955Z,53.55
2018-05-07T04:53:04.311Z,53.59
2018-05-07T04:55:30.635Z,53.59
2018-05-07T04:57:57.005Z,53.62
2018-05-07T05:00:23.323Z,53.79
2018-05-07T05:02:49.683Z,53.67
2018-05-07T05:05:16.035Z,53.72
2018-05-07T05:07:42.362Z,53.72
2018-05-07T05:10:08.759Z,53.82
2018-05-07T05:12:35.076Z,53.76
2018-05-07T05:15:01.425Z,53.75
2018-05-07T05:17:27.782Z,53.78
2018-05-07T05:19:54.132Z,53.86
2018-05-07T05:22:20.492Z,53.88
2018-05-07T05:24:46.866Z,53.94
2018-05-07T05:27:13.275Z,54.01
2018-05-07T05:29:39.620Z,54.01
2018-05-07T05:32:06.006Z,54.03
2018-05-07T05:34:32.435Z,54.03
2018-05-07T05:36:58.877Z,54.10
2018-05-07T05:39:25.285Z,54.05
2018-05-07T05:41:51.627Z,54.18
2018-05-07T05:44:17.990Z,54.14
2018-05-07T05:46:44.390Z,54.15
2018-05-07T05:49:10.757Z,54.20
2018-05-07T05:51:37.130Z,54.14
2018-05-07T05:54:03.459Z,54.30
2018-05-07T05:56:29.886Z,54.28
2018-05-07T05:58:56.163Z,54.32
2018-05-07T06:01:22.567Z,54.26
2018-05-07T06:03:48.944Z,54.36
2018-05-07T06:06:15.367Z,54.46
2018-05-07T06:08:41.699Z,54.43
2018-05-07T06:11:08.060Z,54.52
2018-05-07T06:13:34.391Z,54.54
2018-05-07T06:16:00.774Z,54.52
2018-05-07T06:18:27.116Z,54.64
2018-05-07T06:20:53.597Z,54.55
2018-05-07T06:23:19.934Z,54.60
2018-05-07T06:25:46.364Z,54.59
2018-05-07T06:28:12.716Z,54.57
2018-05-07T06:30:39.057Z,54.59
2018-05-07T06:33:05.528Z,54.62
2018-05-07T06:35:31.881Z,54.65
2018-05-07T06:37:58.244Z,54.59
2018-05-07T06:40:24.656Z,54.65
2018-05-07T06:42:50.976Z,54.61
2018-05-07T06:45:17.410Z,54.52
2018-05-07T06:47:43.764Z,54.62
2018-05-07T06:50:10.241Z,54.62
2018-05-07T06:52:36.628Z,54.62
2018-05-07T06:55:03.012Z,54.70
2018-05-07T06:57:29.384Z,54.68
2018-05-07T06:59:55.741Z,54.62
2018-05-07T07:02:22.149Z,54.64
2018-05-07T07:04:48.468Z,54.61
2018-05-07T07:07:14.813Z,54.54
2018-05-07T07:09:41.229Z,54.51
2018-05-07T07:12:07.585Z,54.63
2018-05-07T07:14:33.968Z,54.42
2018-05-07T07:17:00.396Z,54.22
2018-05-07T07:19:26.737Z,54.04
2018-05-07T07:21:53.223Z,53.97
2018-05-07T07:24:19.498Z,53.92
2018-05-07T07:26:45.863Z,53.99
2018-05-07T07:29:12.201Z,53.73
2018-05-07T07:31:38.592Z,53.82
2018-05-07T07:34:05.000Z,53.64
2018-05-07T07:36:31.308Z,53.63
2018-05-07T07:38:57.636Z,53.55
2018-05-07T07:41:24.021Z,53.30
2018-05-07T07:43:50.342Z,53.20
2018-05-07T07:46:16.794Z,53.26
2018-05-07T07:48:43.153Z,53.14
2018-05-07T07:51:09.505Z,53.07
2018-05-07T07:53:35.932Z,53.01
2018-05-07T07:56:02.189Z,52.94
2018-05-07T07:58:28.610Z,52.85
2018-05-07T08:00:54.944Z,52.72
2018-05-07T08:03:21.286Z,52.66
2018-05-07T08:05:47.646Z,52.74
2018-05-07T08:08:13.965Z,52.50
2018-05-07T08:10:40.354Z,52.55
2018-05-07T08:13:06.675Z,52.50
2018-05-07T08:15:33.038Z,52.43
2018-05-07T08:17:59.417Z,52.52
2018-05-07T08:20:26.752Z,52.27
2018-05-07T08:22:53.112Z,52.15
2018-05-07T08:25:19.541Z,52.27
2018-05-07T08:27:45.864Z,52.16
2018-05-07T08:30:12.189Z,51.98
2018-05-07T08:32:38.587Z,51.91
2018-05-07T08:35:04.908Z,51.81
2018-05-07T08:37:31.257Z,51.79
2018-05-07T08:39:57.621Z,51.72
2018-05-07T08:42:24.057Z,51.61
2018-05-07T08:44:50.469Z,51.57
2018-05-07T08:47:16.791Z,51.47
2018-05-07T08:49:43.173Z,51.30
2018-05-07T08:52:09.521Z,51.25
2018-05-07T08:54:35.844Z,51.33
2018-05-07T08:57:02.187Z,51.25
2018-05-07T08:59:28.540Z,51.20
2018-05-07T09:01:54.847Z,51.01
2018-05-07T09:04:21.235Z,50.90
2018-05-07T09:06:47.593Z,50.90
2018-05-07T09:09:13.976Z,50.92
2018-05-07T09:11:40.349Z,50.77
2018-05-07T09:14:06.731Z,50.71
2018-05-07T09:16:33.123Z,50.68
2018-05-07T09:18:59.446Z,50.59
2018-05-07T09:21:25.808Z,50.59
2018-05-07T09:23:52.169Z,50.49
2018-05-07T09:26:18.495Z,50.34
2018-05-07T09:28:44.827Z,50.08
2018-05-07T09:31:11.204Z,50.20
2018-05-07T09:33:37.598Z,50.10
2018-05-07T09:36:03.934Z,49.98
2018-05-07T09:38:30.298Z,49.95
2018-05-07T09:40:57.660Z,50.02
2018-05-07T09:43:24.069Z,49.97
2018-05-07T09:45:50.439Z,49.83
2018-05-07T09:48:16.837Z,49.90
2018-05-07T09:50:43.224Z,49.85
2018-05-07T09:53:09.589Z,49.99
2018-05-07T09:55:36.077Z,49.95
2018-05-07T09:58:02.369Z,49.90
2018-05-07T10:00:28.694Z,49.89
2018-05-07T10:02:55.050Z,49.76
2018-05-07T10:05:21.401Z,49.74
2018-05-07T10:07:47.721Z,49.64
2018-05-07T10:10:14.066Z,49.85
2018-05-07T10:12:40.385Z,49.69
2018-05-07T10:15:06.750Z,49.79
2018-05-07T10:17:33.114Z,49.63
2018-05-07T10:19:59.500Z,49.73
2018-05-07T10:22:25.861Z,49.50
2018-05-07T10:24:52.226Z,49.64
2018-05-07T10:27:18.579Z,49.48
2018-05-07T10:29:44.979Z,49.49
2018-05-07T10:32:11.331Z,49.40
2018-05-07T10:34:37.721Z,49.53
2018-05-07T10:37:04.042Z,49.44
2018-05-07T10:39:30.373Z,49.69
2018-05-07T10:41:56.697Z,49.37
2018-05-07T10:44:23.013Z,49.38
2018-05-07T10:46:49.334Z,49.37
2018-05-07T10:49:15.751Z,49.22
2018-05-07T10:51:42.036Z,49.28
2018-05-07T10:54:08.413Z,49.16
2018-05-07T10:56:34.782Z,49.59
2018-05-07T10:59:01.109Z,49.31
2018-05-07T11:01:27.474Z,49.35
2018-05-07T11:03:53.828Z,49.28
2018-05-07T11:06:20.204Z,49.13
2018-05-07T11:08:46.525Z,49.27
2018-05-07T11:11:12.856Z,49.18
2018-05-07T11:13:39.259Z,49.18
2018-05-07T11:16:05.605Z,49.26
2018-05-07T11:18:31.950Z,49.10
2018-05-07T11:20:58.289Z,49.17
2018-05-07T11:23:24.638Z,49.08
2018-05-07T11:25:50.986Z,49.01
2018-05-07T11:28:17.309Z,48.91
2018-05-07T11:30:43.645Z,49.27
2018-05-07T11:33:10.054Z,48.89
2018-05-07T11:35:36.368Z,49.19
2018-05-07T11:38:02.752Z,49.05
2018-05-07T11:40:29.125Z,49.28
2018-05-07T11:42:55.448Z,49.16
2018-05-07T11:45:21.815Z,49.02
2018-05-07T11:47:48.143Z,49.02
2018-05-07T11:50:14.455Z,49.05
2018-05-07T11:52:40.817Z,48.92
2018-05-07T11:55:07.141Z,49.08
2018-05-07T11:57:33.473Z,48.89
2018-05-07T11:59:59.805Z,49.06
2018-05-07T12:02:26.203Z,49.11
2018-05-07T12:04:52.512Z,49.06
2018-05-07T12:07:18.823Z,48.98
2018-05-07T12:09:45.146Z,48.90
2018-05-07T12:12:11.482Z,48.82
2018-05-07T12:14:37.798Z,48.95
2018-05-07T12:17:04.179Z,49.05
2018-05-07T12:19:30.509Z,49.26
2018-05-07T12:21:56.868Z,48.95
2018-05-07T12:24:23.184Z,48.95
2018-05-07T12:26:49.557Z,48.96
2018-05-07T12:29:15.872Z,48.87
2018-05-07T12:31:42.376Z,48.96
2018-05-07T12:34:08.581Z,48.61
2018-05-07T12:36:34.964Z,48.63
2018-05-07T12:39:01.286Z,48.57
2018-05-07T12:41:27.631Z,48.53
2018-05-07T12:43:53.956Z,48.65
2018-05-07T12:46:20.320Z,48.60
2018-05-07T12:48:46.629Z,48.66
2018-05-07T12:51:12.936Z,48.36
2018-05-07T12:53:39.299Z,48.56
2018-05-07T12:56:05.616Z,48.41
2018-05-07T12:58:32.016Z,48.38
2018-05-07T13:00:58.336Z,48.55
2018-05-07T13:03:24.665Z,48.41
2018-05-07T13:05:51.023Z,48.41
2018-05-07T13:08:17.388Z,48.29
2018-05-07T13:10:43.702Z,48.41
2018-05-07T13:13:10.019Z,48.35
2018-05-07T13:15:36.347Z,48.11
2018-05-07T13:18:02.820Z,48.16
2018-05-07T13:20:29.160Z,48.08
2018-05-07T13:22:55.485Z,48.14
2018-05-07T13:25:21.804Z,48.10
2018-05-07T13:27:48.154Z,48.12
2018-05-07T13:30:14.508Z,48.18
2018-05-07T13:32:40.817Z,47.99
2018-05-07T13:35:07.170Z,48.16
2018-05-07T13:37:33.528Z,48.07
2018-05-07T13:39:59.884Z,47.85
2018-05-07T13:42:26.209Z,47.86
2018-05-07T13:44:52.573Z,47.92
2018-05-07T13:47:18.918Z,48.05
2018-05-07T13:49:45.294Z,48.06
2018-05-07T13:52:11.667Z,48.24
2018-05-07T13:54:38.025Z,48.01
2018-05-07T13:57:04.352Z,48.17
2018-05-07T13:59:30.714Z,48.12
2018-05-07T14:01:57.036Z,48.12
2018-05-07T14:04:23.384Z,48.19
2018-05-07T14:06:49.741Z,48.34
2018-05-07T14:09:16.091Z,48.15
2018-05-07T14:11:42.396Z,48.19
2018-05-07T14:14:08.747Z,48.16
2018-05-07T14:16:35.093Z,48.50
2018-05-07T14:19:01.410Z,48.51
2018-05-07T14:21:27.725Z,48.24
2018-05-07T14:23:54.100Z,48.22
2018-05-07T14:26:20.491Z,48.47
2018-05-07T14:28:46.799Z,48.34
2018-05-07T14:31:13.165Z,48.55
2018-05-07T14:33:39.496Z,48.22
2018-05-07T14:36:05.861Z,48.24
2018-05-07T14:38:32.175Z,48.37
2018-05-07T14:40:58.499Z,48.50
2018-05-07T14:43:24.814Z,48.39
2018-05-07T14:45:51.144Z,48.31
2018-05-07T14:48:17.501Z,48.34
2018-05-07T14:50:43.816Z,48.26
2018-05-07T14:53:10.144Z,48.15
2018-05-07T14:55:36.459Z,48.29
2018-05-07T14:58:02.851Z,48.31
2018-05-07T15:00:29.181Z,48.12
2018-05-07T15:02:55.528Z,48.21
2018-05-07T15:05:21.840Z,48.11
2018-05-07T15:07:48.189Z,48.01
2018-05-07T15:10:14.508Z,48.14
2018-05-07T15:12:40.819Z,48.06
2018-05-07T15:15:07.172Z,48.08
2018-05-07T15:17:33.502Z,48.22
2018-05-07T15:19:59.834Z,48.26
2018-05-07T15:22:26.147Z,48.51
2018-05-07T15:24:52.519Z,48.27
2018-05-07T15:27:18.834Z,48.08
2018-05-07T15:29:45.216Z,48.01
2018-05-07T15:32:11.558Z,48.32
2018-05-07T15:34:37.867Z,48.29
2018-05-07T15:37:04.208Z,48.20
2018-05-07T15:39:30.555Z,48.28
2018-05-07T15:41:56.908Z,48.39
2018-05-07T15:44:23.218Z,48.31
2018-05-07T15:46:49.623Z,48.15
2018-05-07T15:49:15.988Z,48.23
2018-05-07T15:51:42.321Z,48.36
2018-05-07T15:54:08.647Z,48.52
2018-05-07T15:56:35.020Z,48.41
2018-05-07T15:59:01.335Z,48.44
2018-05-07T16:01:27.670Z,48.44
2018-05-07T16:03:54.040Z,48.60
2018-05-07T16:06:20.451Z,48.61
2018-05-07T16:08:46.801Z,48.76
2018-05-07T16:11:13.127Z,48.77
2018-05-07T16:13:39.448Z,48.80
2018-05-07T16:16:05.823Z,48.69
2018-05-07T16:18:32.178Z,48.69
2018-05-07T16:20:58.501Z,48.76
2018-05-07T16:23:24.837Z,48.79
2018-05-07T16:25:51.164Z,48.70
2018-05-07T16:28:17.598Z,48.79
2018-05-07T16:30:43.946Z,48.74
2018-05-07T16:33:10.274Z,48.78
2018-05-07T16:35:36.694Z,48.66
2018-05-07T16:38:03.010Z,48.70
2018-05-07T16:40:29.323Z,48.81
2018-05-07T16:42:55.680Z,48.73
2018-05-07T16:45:22.011Z,48.61
2018-05-07T16:47:48.328Z,48.63
2018-05-07T16:50:14.710Z,48.56
2018-05-07T16:52:41.067Z,48.61
2018-05-07T16:55:07.399Z,48.53
2018-05-07T16:57:33.725Z,48.61
2018-05-07T17:00:00.078Z,48.58
2018-05-07T17:02:26.398Z,48.73
2018-05-07T17:04:52.718Z,48.50
2018-05-07T17:07:19.040Z,48.58
2018-05-07T17:09:45.432Z,48.35
2018-05-07T17:12:11.764Z,48.31
2018-05-07T17:14:38.119Z,48.28
2018-05-07T17:17:04.430Z,48.16
2018-05-07T17:19:30.770Z,48.12
2018-05-07T17:21:57.113Z,48.12
2018-05-07T17:24:23.448Z,48.16
2018-05-07T17:26:49.843Z,48.05
2018-05-07T17:29:16.201Z,48.02
2018-05-07T17:31:42.532Z,48.01
2018-05-07T17:34:08.872Z,47.99
2018-05-07T17:36:35.193Z,47.96
2018-05-07T17:39:01.512Z,47.93
2018-05-07T17:41:27.938Z,47.91
2018-05-07T17:43:54.271Z,47.76
2018-05-07T17:46:20.588Z,47.70
2018-05-07T17:48:46.932Z,47.68
2018-05-07T17:51:13.256Z,47.62
2018-05-07T17:53:39.600Z,47.64
2018-05-07T17:56:05.946Z,47.59
2018-05-07T17:58:32.283Z,47.54
2018-05-07T18:00:58.614Z,47.52
2018-05-07T18:03:24.931Z,47.50
2018-05-07T18:05:51.263Z,47.52
2018-05-07T18:08:17.623Z,47.47
2018-05-07T18:10:43.967Z,47.45
2018-05-07T18:13:10.292Z,47.44
2018-05-07T18:15:36.616Z,47.42
2018-05-07T18:18:02.941Z,47.36
2018-05-07T18:20:29.280Z,47.31
2018-05-07T18:22:55.599Z,47.34
2018-05-07T18:25:21.939Z,47.34
2018-05-07T18:27:48.286Z,47.33
2018-05-07T18:30:14.620Z,47.31
2018-05-07T18:32:41.117Z,47.31
2018-05-07T18:35:07.303Z,47.31
2018-05-07T18:37:33.652Z,47.27
2018-05-07T18:39:59.963Z,47.36
2018-05-07T18:42:26.316Z,47.22
2018-05-07T18:44:52.661Z,47.29
2018-05-07T18:47:18.976Z,47.33
2018-05-07T18:49:45.308Z,47.47
2018-05-07T18:52:11.707Z,47.38
2018-05-07T18:54:38.004Z,47.38
2018-05-07T18:57:04.317Z,47.40
2018-05-07T18:59:30.633Z,47.42
2018-05-07T19:01:56.954Z,47.34
2018-05-07T19:04:23.310Z,47.50
2018-05-07T19:06:49.656Z,47.44
2018-05-07T19:09:16.047Z,47.49
2018-05-07T19:11:42.376Z,47.43
2018-05-07T19:14:08.703Z,47.52
2018-05-07T19:16:35.012Z,47.57
2018-05-07T19:19:01.330Z,47.58
2018-05-07T19:21:27.660Z,47.60
2018-05-07T19:23:53.976Z,47.60
2018-05-07T19:26:20.320Z,47.61
2018-05-07T19:28:46.673Z,47.61
2018-05-07T19:31:12.984Z,47.73
2018-05-07T19:33:39.361Z,47.67
2018-05-07T19:36:05.690Z,47.75
2018-05-07T19:38:32.023Z,47.92
2018-05-07T19:40:58.367Z,47.78
2018-05-07T19:45:56.993Z,47.83
2018-05-07T19:48:23.387Z,47.97
2018-05-07T19:50:49.663Z,47.99
2018-05-07T19:53:16.129Z,47.90
2018-05-07T19:55:42.491Z,47.89
2018-05-07T19:58:08.780Z,48.02
2018-05-07T20:00:35.118Z,47.99
2018-05-07T20:03:01.448Z,48.05
2018-05-07T20:05:27.809Z,48.04
2018-05-07T20:07:54.170Z,48.02
2018-05-07T20:10:20.483Z,48.04
2018-05-07T20:12:46.837Z,48.04
2018-05-07T20:15:13.185Z,48.12
2018-05-07T20:17:39.496Z,48.11
2018-05-07T20:20:05.849Z,48.20
2018-05-07T20:22:32.157Z,47.96
2018-05-07T20:24:58.476Z,48.08
2018-05-07T20:27:24.804Z,48.21
2018-05-07T20:29:51.181Z,48.10
2018-05-07T20:32:17.515Z,47.93
2018-05-07T20:34:43.869Z,48.12
2018-05-07T20:37:10.254Z,48.25
2018-05-07T20:39:36.600Z,48.18
2018-05-07T20:42:02.964Z,48.17
2018-05-07T20:44:29.289Z,48.18
2018-05-07T20:46:55.617Z,48.21
2018-05-07T20:49:21.964Z,48.07
2018-05-07T20:51:48.356Z,48.22
2018-05-07T20:54:14.664Z,48.31
2018-05-07T20:56:41.033Z,48.24
2018-05-07T20:59:07.380Z,48.20
2018-05-07T21:01:33.724Z,48.31
2018-05-07T21:04:00.045Z,48.17
2018-05-07T21:06:26.372Z,48.17
2018-05-07T21:08:52.796Z,48.14
2018-05-07T21:11:19.124Z,48.24
2018-05-07T21:13:45.515Z,48.17
2018-05-07T21:16:11.850Z,48.13
2018-05-07T21:18:38.219Z,48.48
2018-05-07T21:21:04.533Z,48.09
2018-05-07T21:23:30.852Z,48.14
2018-05-07T21:25:57.179Z,48.26
2018-05-07T21:28:23.516Z,48.35
2018-05-07T21:30:49.926Z,48.29
2018-05-07T21:33:16.248Z,48.27
2018-05-07T21:35:42.591Z,48.50
2018-05-07T21:38:08.917Z,48.30
2018-05-07T21:40:35.236Z,48.40
2018-05-07T21:43:01.558Z,48.54
2018-05-07T21:45:27.886Z,48.23
2018-05-07T21:47:54.271Z,48.23
2018-05-07T21:50:20.621Z,48.50
2018-05-07T21:52:46.949Z,48.31
2018-05-07T21:55:13.269Z,48.33
2018-05-07T21:57:39.590Z,48.22
2018-05-07T22:00:05.919Z,48.20
2018-05-07T22:02:32.255Z,48.36
2018-05-07T22:04:58.576Z,48.25
2018-05-07T22:07:24.900Z,48.18
2018-05-07T22:09:51.236Z,48.28
2018-05-07T22:12:17.594Z,48.27
2018-05-07T22:14:43.895Z,48.21
2018-05-07T22:17:10.213Z,48.38
2018-05-07T22:19:36.525Z,48.31
2018-05-07T22:22:02.852Z,48.32
2018-05-07T22:24:29.174Z,48.51
2018-05-07T22:26:55.496Z,48.23
2018-05-07T22:29:21.833Z,48.35
2018-05-07T22:31:48.213Z,48.52
2018-05-07T22:34:14.578Z,48.30
2018-05-07T22:36:40.905Z,48.43
2018-05-07T22:39:07.273Z,48.55
2018-05-07T22:41:33.676Z,48.41
2018-05-07T22:43:59.992Z,48.40
2018-05-07T22:46:26.347Z,48.54
2018-05-07T22:48:52.715Z,48.67
2018-05-07T22:51:19.025Z,48.41
2018-05-07T22:53:45.384Z,48.62
2018-05-07T22:56:11.744Z,48.55
2018-05-07T22:58:38.062Z,48.55
2018-05-07T23:01:04.423Z,48.38
2018-05-07T23:03:30.759Z,48.47
2018-05-07T23:05:57.125Z,48.29
2018-05-07T23:08:23.452Z,48.53
2018-05-07T23:10:49.846Z,48.34
2018-05-07T23:13:16.173Z,48.28
2018-05-07T23:15:42.520Z,48.28
2018-05-07T23:18:08.833Z,48.45
2018-05-07T23:20:35.228Z,48.24
2018-05-07T23:23:01.549Z,48.21
2018-05-07T23:25:27.917Z,48.16
2018-05-07T23:27:54.241Z,48.19
2018-05-07T23:30:20.606Z,48.33
2018-05-07T23:32:46.916Z,48.44
2018-05-07T23:35:13.305Z,48.39
2018-05-07T23:37:39.629Z,48.39
2018-05-07T23:40:05.954Z,48.38
2018-05-07T23:42:32.303Z,48.30
2018-05-07T23:44:58.711Z,48.15
2018-05-07T23:47:25.020Z,48.40
2018-05-07T23:49:51.376Z,48.29
2018-05-07T23:52:17.692Z,48.22
2018-05-07T23:54:44.081Z,48.32
2018-05-07T23:57:10.403Z,48.24
2018-05-07T23:59:36.714Z,48.36
